Time;durP1;ratioP1;P1;durP2;ratioP2;P2;SDS_P1;SDS_P2;PMS_P1;PMS_P2;Temp;Humidity;BMP_temperature;BMP_pressure;BME280_temperature;BME280_humidity;BME280_pressure;Samples;Min_cycle;Max_cycle;Signal;HPM_P1;HPM_P2
2023/03/04 00:00:51;;;;;;;;;;;;;;;3.84;100.00;100657.19;5073122;28;19916;-72
2023/03/04 00:03:16;;;;;;;;;;;;;;;3.84;100.00;100662.28;5073108;28;20397;-69
2023/03/04 00:05:41;;;;;;;;;;;;;;;3.82;100.00;100654.50;5072771;28;19920;-69
2023/03/04 00:08:07;;;;;;;;;;;;;;;3.77;100.00;100648.22;5072761;28;20397;-68
2023/03/04 00:10:32;;;;;;;;;;;;;;;3.57;100.00;100651.97;5072300;28;20003;-70
2023/03/04 00:12:57;;;;;;;;;;;;;;;3.39;100.00;100649.06;5072670;28;19950;-69
2023/03/04 00:15:22;;;;;;;;;;;;;;;3.34;100.00;100648.75;5072094;28;19912;-70
2023/03/04 00:17:48;;;;;;;;;;;;;;;3.43;100.00;100648.50;5072421;28;19924;-71
2023/03/04 00:20:13;;;;;;;;;;;;;;;3.50;100.00;100655.78;5072602;28;19920;-70
2023/03/04 00:22:38;;;;;;;;;;;;;;;3.46;100.00;100647.81;5072915;28;19958;-72
2023/03/04 00:25:04;;;;;;;;;;;;;;;3.38;100.00;100658.38;5071903;28;20363;-70
2023/03/04 00:27:29;;;;;;;;;;;;;;;3.33;100.00;100651.19;5071104;28;19917;-69
2023/03/04 00:29:55;;;;;;;;;;;;;;;3.37;100.00;100650.63;5071706;28;19913;-71
2023/03/04 00:32:21;;;;;;;;;;;;;;;3.36;100.00;100646.28;5053542;28;20302;-68
2023/03/04 00:34:46;;;;;;;;;;;;;;;3.26;100.00;100654.09;5072058;28;19913;-70
2023/03/04 00:37:11;;;;;;;;;;;;;;;3.16;100.00;100653.44;5072768;28;20388;-73
2023/03/04 00:39:37;;;;;;;;;;;;;;;3.03;100.00;100648.28;5072590;28;19955;-73
2023/03/04 00:42:02;;;;;;;;;;;;;;;2.98;100.00;100652.16;5071959;28;20331;-71
2023/03/04 00:44:27;;;;;;;;;;;;;;;3.00;100.00;100655.72;5071515;28;19912;-68
2023/03/04 00:46:52;;;;;;;;;;;;;;;3.05;100.00;100654.38;5072145;28;19912;-71
2023/03/04 00:49:18;;;;;;;;;;;;;;;3.10;100.00;100649.59;5072542;28;19920;-69
2023/03/04 00:51:43;;;;;;;;;;;;;;;3.16;100.00;100650.91;5079350;28;19920;-70
2023/03/04 00:54:08;;;;;;;;;;;;;;;3.22;100.00;100646.22;5090231;28;19926;-71
2023/03/04 00:56:34;;;;;;;;;;;;;;;3.31;100.00;100648.53;5092830;28;20289;-68
2023/03/04 00:58:59;;;;;;;;;;;;;;;3.27;100.00;100656.75;5092284;28;19982;-72
2023/03/04 01:01:24;;;;;;;;;;;;;;;3.14;100.00;100654.13;5093051;28;19977;-70
2023/03/04 01:03:49;;;;;;;;;;;;;;;3.18;100.00;100659.56;5092890;28;19919;-67
2023/03/04 01:06:15;;;;;;;;;;;;;;;3.16;100.00;100662.78;5092181;28;20015;-68
2023/03/04 01:08:40;;;;;;;;;;;;;;;3.00;100.00;100666.78;5094774;28;19912;-74
2023/03/04 01:11:06;;;;;;;;;;;;;;;2.97;100.00;100665.72;5092210;28;19959;-73
2023/03/04 01:13:32;;;;;;;;;;;;;;;3.00;100.00;100676.13;5074281;28;19918;-68
2023/03/04 01:15:57;;;;;;;;;;;;;;;2.92;100.00;100671.34;5092554;28;19995;-70
2023/03/04 01:18:23;;;;;;;;;;;;;;;2.97;100.00;100670.81;5092049;28;20003;-68
2023/03/04 01:20:48;;;;;;;;;;;;;;;3.03;100.00;100671.25;5060983;28;19924;-70
2023/03/04 01:23:13;;;;;;;;;;;;;;;3.07;100.00;100668.13;5052009;28;19913;-71
2023/03/04 01:25:39;;;;;;;;;;;;;;;3.03;100.00;100674.69;5052060;28;19912;-67
2023/03/04 01:28:04;;;;;;;;;;;;;;;3.06;100.00;100677.41;5051861;28;19962;-68
2023/03/04 01:30:29;;;;;;;;;;;;;;;3.08;100.00;100680.97;5050704;28;19935;-70
2023/03/04 01:32:54;;;;;;;;;;;;;;;3.14;100.00;100671.97;5051586;28;19919;-69
2023/03/04 01:35:20;;;;;;;;;;;;;;;3.12;100.00;100676.97;5051370;28;19935;-68
2023/03/04 01:37:45;;;;;;;;;;;;;;;3.08;100.00;100658.03;5051701;28;19919;-67
2023/03/04 01:40:11;;;;;;;;;;;;;;;3.07;100.00;100663.91;5051633;28;19912;-72
2023/03/04 01:42:37;;;;;;;;;;;;;;;3.14;100.00;100651.56;5066803;28;19917;-71
2023/03/04 01:45:03;;;;;;;;;;;;;;;3.19;100.00;100656.22;5051474;28;19919;-73
2023/03/04 01:47:30;;;;;;;;;;;;;;;3.21;100.00;100659.75;5051646;28;19948;-70
2023/03/04 01:49:56;;;;;;;;;;;;;;;3.20;100.00;100663.13;5051613;28;19913;-70
2023/03/04 01:52:22;;;;;;;;;;;;;;;3.03;100.00;100663.59;5051453;28;19913;-70
2023/03/04 01:54:47;;;;;;;;;;;;;;;3.08;100.00;100660.56;5051468;28;19935;-69
2023/03/04 01:57:17;;;;;;;;;;;;;;;3.14;100.00;100659.22;5051386;28;19927;-69
2023/03/04 01:59:42;;;;;;;;;;;;;;;3.03;100.00;100654.28;5051297;28;19948;-67
2023/03/04 02:02:08;;;;;;;;;;;;;;;3.01;100.00;100649.84;5051269;28;20741;-70
2023/03/04 02:04:33;;;;;;;;;;;;;;;3.08;100.00;100646.94;5051400;28;19923;-70
2023/03/04 02:07:00;;;;;;;;;;;;;;;3.14;100.00;100651.56;5050966;28;20361;-72
2023/03/04 02:09:25;;;;;;;;;;;;;;;3.17;100.00;100651.81;5051411;28;20373;-72
2023/03/04 02:11:51;;;;;;;;;;;;;;;3.18;100.00;100651.91;5050954;28;19915;-71
2023/03/04 02:14:17;;;;;;;;;;;;;;;3.19;100.00;100661.34;5050570;28;19920;-70
2023/03/04 02:16:43;;;;;;;;;;;;;;;3.17;100.00;100664.56;5069958;28;19963;-68
2023/03/04 02:19:23;;;;;;;;;;;;;;;3.16;100.00;100660.22;5071250;28;19955;-69
2023/03/04 02:21:48;;;;;;;;;;;;;;;3.14;100.00;100659.22;5071236;28;19995;-69
2023/03/04 02:24:31;;;;;;;;;;;;;;;3.11;100.00;100669.22;5053920;28;20554;-68
2023/03/04 02:26:57;;;;;;;;;;;;;;;3.10;100.00;100663.22;5050808;28;20398;-71
2023/03/04 02:29:23;;;;;;;;;;;;;;;3.13;100.00;100663.44;5063307;28;19955;-70
2023/03/04 02:31:49;;;;;;;;;;;;;;;3.08;100.00;100669.91;5070786;28;19912;-70
2023/03/04 02:34:16;;;;;;;;;;;;;;;2.99;100.00;100671.78;5070738;28;19916;-68
2023/03/04 02:36:42;;;;;;;;;;;;;;;2.93;100.00;100674.81;5070969;28;19919;-69
2023/03/04 02:39:46;;;;;;;;;;;;;;;2.89;100.00;100663.50;5070749;28;19912;-70
2023/03/04 02:42:11;;;;;;;;;;;;;;;2.79;100.00;100667.84;5028397;28;19917;-72
2023/03/04 02:44:38;;;;;;;;;;;;;;;2.52;100.00;100662.53;5028555;28;19913;-71
2023/03/04 02:47:05;;;;;;;;;;;;;;;2.46;100.00;100667.19;5028221;28;19940;-70
2023/03/04 02:49:31;;;;;;;;;;;;;;;2.49;100.00;100658.09;5028277;28;20692;-68
2023/03/04 02:52:01;;;;;;;;;;;;;;;2.58;100.00;100653.66;5028209;28;19917;-73
2023/03/04 02:54:26;;;;;;;;;;;;;;;2.67;100.00;100653.44;5028196;28;20653;-70
2023/03/04 02:56:53;;;;;;;;;;;;;;;2.69;100.00;100639.16;5028136;28;20016;-70
2023/03/04 02:59:19;;;;;;;;;;;;;;;2.70;100.00;100637.47;5028102;28;19917;-70
2023/03/04 03:01:44;;;;;;;;;;;;;;;2.67;100.00;100633.03;5028000;28;19913;-70
2023/03/04 03:04:11;;;;;;;;;;;;;;;2.70;100.00;100627.28;4995196;28;19913;-70
2023/03/04 03:06:37;;;;;;;;;;;;;;;2.78;100.00;100626.16;5027951;28;20052;-70
2023/03/04 03:09:03;;;;;;;;;;;;;;;2.86;100.00;100631.78;5028062;28;19995;-69
2023/03/04 03:11:28;;;;;;;;;;;;;;;2.90;100.00;100627.03;5011677;28;19913;-69
2023/03/04 03:13:53;;;;;;;;;;;;;;;3.04;100.00;100630.53;5066109;28;19919;-70
2023/03/04 03:16:19;;;;;;;;;;;;;;;3.04;100.00;100637.28;5070465;28;19912;-69
2023/03/04 03:18:44;;;;;;;;;;;;;;;3.00;100.00;100643.84;5073136;28;19919;-70
2023/03/04 03:21:09;;;;;;;;;;;;;;;3.07;100.00;100646.03;5074363;28;20275;-70
2023/03/04 03:23:35;;;;;;;;;;;;;;;3.16;100.00;100655.13;5074000;28;19912;-69
2023/03/04 03:26:00;;;;;;;;;;;;;;;3.16;100.00;100656.00;5074099;28;19919;-70
2023/03/04 03:28:25;;;;;;;;;;;;;;;3.16;100.00;100650.91;5059081;28;19913;-71
2023/03/04 03:30:51;;;;;;;;;;;;;;;3.23;100.00;100652.22;5053948;28;19962;-71
2023/03/04 03:33:16;;;;;;;;;;;;;;;3.32;100.00;100646.88;5053905;28;19920;-70
2023/03/04 03:35:41;;;;;;;;;;;;;;;3.38;100.00;100650.72;5054073;28;19920;-74
2023/03/04 03:38:07;;;;;;;;;;;;;;;3.40;100.00;100656.81;5054227;28;19995;-69
2023/03/04 03:40:32;;;;;;;;;;;;;;;3.40;100.00;100659.38;5054015;28;19912;-72
2023/03/04 03:42:57;;;;;;;;;;;;;;;3.38;100.00;100663.47;5053786;28;20345;-69
2023/03/04 03:45:22;;;;;;;;;;;;;;;3.37;100.00;100666.81;5054190;28;19913;-69
2023/03/04 03:47:48;;;;;;;;;;;;;;;3.38;100.00;100673.69;5053911;28;19913;-72
2023/03/04 03:50:13;;;;;;;;;;;;;;;3.38;100.00;100678.78;5053658;28;20326;-69
2023/03/04 03:52:38;;;;;;;;;;;;;;;3.37;100.00;100679.56;5053488;28;19912;-70
2023/03/04 03:55:04;;;;;;;;;;;;;;;3.40;100.00;100677.25;5053863;28;19986;-69
2023/03/04 03:57:29;;;;;;;;;;;;;;;3.44;100.00;100673.25;5053645;28;20477;-69
2023/03/04 03:59:55;;;;;;;;;;;;;;;3.42;100.00;100669.69;5053657;28;20012;-70
2023/03/04 04:02:20;;;;;;;;;;;;;;;3.43;100.00;100679.13;5053477;28;19928;-70
2023/03/04 04:04:46;;;;;;;;;;;;;;;3.46;100.00;100675.88;5070011;28;20370;-70
2023/03/04 04:07:11;;;;;;;;;;;;;;;3.47;100.00;100672.56;5074941;28;20023;-70
2023/03/04 04:09:36;;;;;;;;;;;;;;;3.45;100.00;100674.13;5093707;28;20042;-70
2023/03/04 04:12:03;;;;;;;;;;;;;;;3.39;100.00;100677.16;5088201;28;19921;-71
2023/03/04 04:14:29;;;;;;;;;;;;;;;3.34;100.00;100670.81;5068230;28;19999;-72
2023/03/04 04:16:54;;;;;;;;;;;;;;;3.33;100.00;100671.63;5072320;28;20042;-70
2023/03/04 04:19:20;;;;;;;;;;;;;;;3.33;100.00;100674.16;5073470;28;19964;-72
2023/03/04 04:21:45;;;;;;;;;;;;;;;3.28;100.00;100661.09;5072649;28;19999;-71
2023/03/04 04:24:10;;;;;;;;;;;;;;;3.05;100.00;100662.03;5072623;28;19962;-71
2023/03/04 04:26:36;;;;;;;;;;;;;;;2.89;100.00;100665.16;5072858;28;20434;-69
2023/03/04 04:29:01;;;;;;;;;;;;;;;2.83;100.00;100672.38;5072341;28;20438;-71
2023/03/04 04:31:26;;;;;;;;;;;;;;;2.91;100.00;100661.06;5072603;28;20019;-70
2023/03/04 04:33:52;;;;;;;;;;;;;;;2.97;100.00;100661.50;5072821;28;19912;-70
2023/03/04 04:36:17;;;;;;;;;;;;;;;2.97;100.00;100668.28;5072637;28;20428;-70
2023/03/04 04:38:42;;;;;;;;;;;;;;;2.96;100.00;100657.16;5071221;28;19966;-71
2023/03/04 04:41:18;;;;;;;;;;;;;;;3.00;100.00;100653.16;5072496;28;20382;-71
2023/03/04 04:43:43;;;;;;;;;;;;;;;3.02;100.00;100660.16;5072488;28;19916;-70
2023/03/04 04:46:09;;;;;;;;;;;;;;;3.08;100.00;100657.16;5088076;28;20352;-70
2023/03/04 04:48:34;;;;;;;;;;;;;;;3.07;100.00;100656.25;5093103;28;19912;-69
2023/03/04 04:50:59;;;;;;;;;;;;;;;3.09;100.00;100671.69;5092926;28;20336;-70
2023/03/04 04:53:24;;;;;;;;;;;;;;;3.11;100.00;100662.44;5093253;28;20010;-70
2023/03/04 04:55:50;;;;;;;;;;;;;;;3.14;100.00;100656.66;5092472;28;20343;-71
2023/03/04 04:58:15;;;;;;;;;;;;;;;3.11;100.00;100657.34;5092711;28;19916;-69
2023/03/04 05:00:40;;;;;;;;;;;;;;;3.14;100.00;100665.22;5092895;28;20301;-69
2023/03/04 05:03:06;;;;;;;;;;;;;;;3.15;100.00;100661.00;5091816;28;19912;-71
2023/03/04 05:05:31;;;;;;;;;;;;;;;3.10;100.00;100664.91;5062716;28;19916;-70
2023/03/04 05:07:56;;;;;;;;;;;;;;;3.10;100.00;100663.22;5067630;28;20355;-70
2023/03/04 05:10:21;;;;;;;;;;;;;;;3.03;100.00;100661.91;5059435;28;19935;-74
2023/03/04 05:12:47;;;;;;;;;;;;;;;2.95;100.00;100655.38;5081083;28;19915;-70
2023/03/04 05:15:12;;;;;;;;;;;;;;;2.92;100.00;100656.06;5092176;28;20369;-70
2023/03/04 05:17:37;;;;;;;;;;;;;;;3.03;100.00;100664.47;5092223;28;20305;-73
2023/03/04 05:20:03;;;;;;;;;;;;;;;3.08;100.00;100657.16;5092729;28;19908;-71
2023/03/04 05:22:28;;;;;;;;;;;;;;;3.09;100.00;100658.94;5072386;28;19917;-71
2023/03/04 05:24:54;;;;;;;;;;;;;;;3.11;100.00;100667.56;5052436;28;19913;-69
2023/03/04 05:27:19;;;;;;;;;;;;;;;3.14;100.00;100669.44;5052196;28;20307;-71
2023/03/04 05:29:45;;;;;;;;;;;;;;;3.16;100.00;100667.88;5052332;28;19943;-70
2023/03/04 05:32:11;;;;;;;;;;;;;;;3.20;100.00;100674.97;5054422;28;20008;-67
2023/03/04 05:34:36;;;;;;;;;;;;;;;3.21;100.00;100674.19;5063803;28;19963;-70
2023/03/04 05:37:01;;;;;;;;;;;;;;;3.20;100.00;100669.84;5070080;28;19923;-71
2023/03/04 05:39:27;;;;;;;;;;;;;;;3.30;100.00;100673.94;5061810;28;19924;-67
2023/03/04 05:41:52;;;;;;;;;;;;;;;3.29;100.00;100675.63;5059240;28;19912;-71
2023/03/04 05:44:17;;;;;;;;;;;;;;;3.31;100.00;100675.72;5057950;28;19962;-67
2023/03/04 05:46:42;;;;;;;;;;;;;;;3.20;100.00;100677.50;5071560;28;19999;-69
2023/03/04 05:49:08;;;;;;;;;;;;;;;3.11;100.00;100687.09;5071690;28;19912;-68
2023/03/04 05:51:33;;;;;;;;;;;;;;;3.01;100.00;100688.97;5071325;28;19912;-67
2023/03/04 05:53:58;;;;;;;;;;;;;;;3.12;100.00;100683.75;5071633;28;20070;-70
2023/03/04 05:56:24;;;;;;;;;;;;;;;3.22;100.00;100686.16;5071325;28;20327;-67
2023/03/04 05:58:49;;;;;;;;;;;;;;;3.24;100.00;100685.50;5071161;28;20301;-67
2023/03/04 06:01:15;;;;;;;;;;;;;;;3.31;100.00;100691.03;5071106;28;19974;-67
2023/03/04 06:03:42;;;;;;;;;;;;;;;3.37;100.00;100689.78;5071139;28;19912;-68
2023/03/04 06:06:07;;;;;;;;;;;;;;;3.36;100.00;100692.22;5071890;28;20560;-67
2023/03/04 06:08:33;;;;;;;;;;;;;;;3.34;100.00;100687.03;5071505;28;19923;-70
2023/03/04 06:10:58;;;;;;;;;;;;;;;3.40;100.00;100687.44;5071321;28;19915;-67
2023/03/04 06:13:24;;;;;;;;;;;;;;;3.48;100.00;100697.31;5071301;28;19959;-70
2023/03/04 06:15:53;;;;;;;;;;;;;;;3.52;100.00;100709.50;5071080;28;20298;-67
2023/03/04 06:18:18;;;;;;;;;;;;;;;3.64;100.00;100696.66;5070948;28;19919;-69
2023/03/04 06:20:44;;;;;;;;;;;;;;;3.70;100.00;100700.53;5071148;28;20313;-71
2023/03/04 06:23:10;;;;;;;;;;;;;;;3.70;100.00;100698.00;5071081;28;19917;-69
2023/03/04 06:25:36;;;;;;;;;;;;;;;3.80;100.00;100699.50;5070895;28;20370;-67
2023/03/04 06:28:01;;;;;;;;;;;;;;;3.92;100.00;100709.66;5071114;28;20019;-68
2023/03/04 06:30:27;;;;;;;;;;;;;;;3.87;100.00;100708.47;5071364;28;19913;-68
2023/03/04 06:32:52;;;;;;;;;;;;;;;3.91;100.00;100712.97;5071134;28;19998;-70
2023/03/04 06:35:17;;;;;;;;;;;;;;;3.99;100.00;100722.06;5071132;28;20310;-70
2023/03/04 06:37:43;;;;;;;;;;;;;;;4.05;100.00;100719.06;5071017;28;19919;-69
2023/03/04 06:40:09;;;;;;;;;;;;;;;4.08;100.00;100714.13;5070750;28;19977;-70
2023/03/04 06:42:35;;;;;;;;;;;;;;;4.12;100.00;100712.66;5072914;28;20009;-71
2023/03/04 06:45:00;;;;;;;;;;;;;;;4.05;100.00;100704.59;5070988;28;19916;-67
2023/03/04 06:47:26;;;;;;;;;;;;;;;3.94;100.00;100705.53;5070757;28;19918;-70
2023/03/04 06:49:52;;;;;;;;;;;;;;;3.94;100.00;100696.97;5070575;28;19922;-70
2023/03/04 06:52:17;;;;;;;;;;;;;;;3.84;100.00;100701.47;5071357;28;20342;-70
2023/03/04 06:54:42;;;;;;;;;;;;;;;3.93;100.00;100702.91;5074909;28;19912;-67
2023/03/04 06:57:07;;;;;;;;;;;;;;;4.03;100.00;100703.59;5074861;28;20473;-71
2023/03/04 06:59:33;;;;;;;;;;;;;;;4.15;100.00;100707.75;5075175;28;20291;-69
2023/03/04 07:01:58;;;;;;;;;;;;;;;4.28;100.00;100697.56;5074772;28;19947;-71
2023/03/04 07:04:24;;;;;;;;;;;;;;;4.35;100.00;100701.41;5074608;28;20334;-70
2023/03/04 07:06:49;;;;;;;;;;;;;;;4.44;100.00;100696.03;5074741;28;19912;-73
2023/03/04 07:09:15;;;;;;;;;;;;;;;4.44;100.00;100696.03;5074567;28;20069;-68
2023/03/04 07:11:40;;;;;;;;;;;;;;;4.44;100.00;100690.91;5074439;28;19919;-67
2023/03/04 07:14:05;;;;;;;;;;;;;;;4.56;100.00;100688.25;5074804;28;19928;-70
2023/03/04 07:16:31;;;;;;;;;;;;;;;4.62;100.00;100693.75;5074672;28;20313;-70
2023/03/04 07:18:57;;;;;;;;;;;;;;;4.72;100.00;100702.91;5074315;28;19916;-68
2023/03/04 07:21:22;;;;;;;;;;;;;;;4.82;100.00;100693.38;5074369;28;20309;-67
2023/03/04 07:23:47;;;;;;;;;;;;;;;4.89;100.00;100688.66;5074556;28;20003;-72
2023/03/04 07:26:13;;;;;;;;;;;;;;;4.93;100.00;100683.81;5074409;28;19912;-71
2023/03/04 07:28:38;;;;;;;;;;;;;;;5.00;100.00;100688.53;5089628;28;19912;-69
2023/03/04 07:31:24;;;;;;;;;;;;;;;5.10;100.00;100689.13;5074061;28;20019;-68
2023/03/04 07:33:49;;;;;;;;;;;;;;;5.18;100.00;100687.91;5074154;28;19912;-70
2023/03/04 07:36:15;;;;;;;;;;;;;;;5.24;100.00;100684.84;5074306;28;19912;-68
2023/03/04 07:38:44;;;;;;;;;;;;;;;5.29;100.00;100686.00;5074070;28;20011;-71
2023/03/04 07:41:10;;;;;;;;;;;;;;;5.32;100.00;100684.53;5073987;28;20310;-69
2023/03/04 07:43:35;;;;;;;;;;;;;;;5.39;100.00;100675.53;5073929;28;19913;-67
2023/03/04 07:46:00;;;;;;;;;;;;;;;5.49;100.00;100679.53;5074051;28;19931;-72
2023/03/04 07:48:26;;;;;;;;;;;;;;;5.58;100.00;100682.69;5073641;28;19912;-68
2023/03/04 07:51:01;;;;;;;;;;;;;;;5.64;100.00;100683.03;5081784;28;19969;-70
2023/03/04 07:53:26;;;;;;;;;;;;;;;5.63;100.00;100675.25;5093919;28;20405;-67
2023/03/04 07:55:51;;;;;;;;;;;;;;;5.67;100.00;100679.78;5094291;28;19912;-70
2023/03/04 07:58:18;;;;;;;;;;;;;;;5.69;100.00;100675.63;5094109;28;19916;-68
2023/03/04 08:00:45;;;;;;;;;;;;;;;5.77;100.00;100683.75;5093640;28;20381;-71
2023/03/04 08:03:10;;;;;;;;;;;;;;;5.67;100.00;100677.22;5093332;28;19912;-67
2023/03/04 08:05:38;;;;;;;;;;;;;;;5.72;100.00;100680.03;5094217;28;20282;-68
2023/03/04 08:08:03;;;;;;;;;;;;;;;5.75;100.00;100678.53;5093997;28;19919;-68
2023/03/04 08:10:28;;;;;;;;;;;;;;;5.73;100.00;100679.25;5093640;28;19963;-68
2023/03/04 08:12:54;;;;;;;;;;;;;;;5.80;100.00;100676.28;5093802;28;19912;-70
2023/03/04 08:15:19;;;;;;;;;;;;;;;5.88;100.00;100682.75;5093757;28;20389;-70
2023/03/04 08:17:44;;;;;;;;;;;;;;;5.93;100.00;100683.00;5093608;28;19978;-70
2023/03/04 08:20:10;;;;;;;;;;;;;;;5.98;100.00;100682.53;5093744;28;20358;-70
2023/03/04 08:22:35;;;;;;;;;;;;;;;6.03;100.00;100681.91;5079091;28;19916;-71
2023/03/04 08:25:01;;;;;;;;;;;;;;;6.10;100.00;100684.03;5093440;28;19912;-70
2023/03/04 08:27:26;;;;;;;;;;;;;;;6.10;100.00;100691.72;5093673;28;19912;-70
2023/03/04 08:29:51;;;;;;;;;;;;;;;6.18;100.00;100680.25;5093866;28;20302;-70
2023/03/04 08:32:16;;;;;;;;;;;;;;;6.19;100.00;100679.41;5093371;28;20343;-70
2023/03/04 08:34:42;;;;;;;;;;;;;;;6.26;100.00;100675.56;5093166;28;20348;-70
2023/03/04 08:37:07;;;;;;;;;;;;;;;6.20;100.00;100678.63;5093444;28;19916;-70
2023/03/04 08:39:34;;;;;;;;;;;;;;;6.21;100.00;100676.97;5092936;28;20010;-69
2023/03/04 08:42:00;;;;;;;;;;;;;;;6.20;100.00;100673.50;5093217;28;19912;-68
2023/03/04 08:44:25;;;;;;;;;;;;;;;6.19;100.00;100681.13;5092927;28;20310;-69
2023/03/04 08:46:51;;;;;;;;;;;;;;;6.25;100.00;100679.78;5093260;28;19912;-68
2023/03/04 08:49:16;;;;;;;;;;;;;;;6.30;100.00;100680.91;5093141;28;19923;-71
2023/03/04 08:51:41;;;;;;;;;;;;;;;6.37;100.00;100684.75;5092763;28;20375;-67
2023/03/04 08:54:07;;;;;;;;;;;;;;;6.43;100.00;100691.88;5092872;28;19916;-70
2023/03/04 08:56:32;;;;;;;;;;;;;;;6.48;100.00;100693.94;5092896;28;20347;-68
2023/03/04 08:58:57;;;;;;;;;;;;;;;6.54;100.00;100693.41;5092605;28;20287;-67
2023/03/04 09:01:23;;;;;;;;;;;;;;;6.62;100.00;100692.13;5082304;28;19921;-71
2023/03/04 09:03:48;;;;;;;;;;;;;;;6.69;100.00;100687.34;5072441;28;19912;-71
2023/03/04 09:06:15;;;;;;;;;;;;;;;6.68;100.00;100685.56;5072667;28;20002;-69
2023/03/04 09:08:40;;;;;;;;;;;;;;;6.64;100.00;100679.38;5072534;28;19969;-67
2023/03/04 09:11:06;;;;;;;;;;;;;;;6.54;100.00;100674.56;5072505;28;19916;-71
2023/03/04 09:13:31;;;;;;;;;;;;;;;6.62;100.00;100678.44;5071967;28;20015;-67
2023/03/04 09:15:57;;;;;;;;;;;;;;;6.78;100.00;100680.19;5071553;28;20003;-70
2023/03/04 09:18:22;;;;;;;;;;;;;;;6.80;100.00;100676.00;5072298;28;19920;-69
2023/03/04 09:20:48;;;;;;;;;;;;;;;6.88;100.00;100676.41;5072004;28;19912;-70
2023/03/04 09:23:14;;;;;;;;;;;;;;;6.92;100.00;100673.25;5071897;28;20318;-68
2023/03/04 09:25:40;;;;;;;;;;;;;;;6.95;100.00;100675.97;5072004;28;20305;-72
2023/03/04 09:28:06;;;;;;;;;;;;;;;6.95;100.00;100671.72;5071688;28;20004;-67
2023/03/04 09:30:32;;;;;;;;;;;;;;;6.97;100.00;100664.97;5071846;28;20420;-67
2023/03/04 09:32:57;;;;;;;;;;;;;;;6.99;100.00;100651.34;5071963;28;20278;-68
2023/03/04 09:35:23;;;;;;;;;;;;;;;7.08;100.00;100641.59;5079903;28;19915;-69
2023/03/04 09:37:48;;;;;;;;;;;;;;;7.03;100.00;100650.72;5082437;28;19962;-68
2023/03/04 09:40:32;;;;;;;;;;;;;;;7.03;100.00;100643.00;5081531;28;20022;-69
2023/03/04 09:43:04;;;;;;;;;;;;;;;7.00;100.00;100642.84;5081267;28;19920;-70
2023/03/04 09:45:45;;;;;;;;;;;;;;;7.24;100.00;100633.00;5079580;28;19999;-71
2023/03/04 09:48:16;;;;;;;;;;;;;;;7.53;100.00;100626.84;5079738;28;19916;-69
2023/03/04 09:50:47;;;;;;;;;;;;;;;7.71;100.00;100623.44;5079907;28;19965;-71
2023/03/04 09:53:13;;;;;;;;;;;;;;;7.91;100.00;100622.78;5074104;28;19916;-70
2023/03/04 09:55:42;;;;;;;;;;;;;;;8.11;100.00;100622.84;5080617;28;20029;-70
2023/03/04 09:58:43;;;;;;;;;;;;;;;8.41;100.00;100618.34;5082406;28;19920;-67
2023/03/04 10:01:25;;;;;;;;;;;;;;;8.78;100.00;100614.06;5028747;28;19991;-67
2023/03/04 10:03:50;;;;;;;;;;;;;;;9.05;100.00;100599.00;5028652;28;20944;-69
2023/03/04 10:06:19;;;;;;;;;;;;;;;9.26;100.00;100599.88;5028553;28;20527;-72
2023/03/04 10:08:49;;;;;;;;;;;;;;;9.17;100.00;100592.63;5028741;28;20012;-69
2023/03/04 10:11:14;;;;;;;;;;;;;;;9.28;100.00;100590.53;5028590;28;19913;-71
2023/03/04 10:13:46;;;;;;;;;;;;;;;9.30;100.00;100578.63;5028928;28;20355;-70
2023/03/04 10:16:13;;;;;;;;;;;;;;;9.32;100.00;100585.59;5028158;28;19908;-73
2023/03/04 10:18:42;;;;;;;;;;;;;;;9.46;100.00;100581.03;5028064;28;19975;-69
2023/03/04 10:21:19;;;;;;;;;;;;;;;9.44;100.00;100571.50;5026374;28;19956;-70
2023/03/04 10:23:44;;;;;;;;;;;;;;;9.38;100.00;100523.13;5027782;28;19917;-70
2023/03/04 10:26:14;;;;;;;;;;;;;;;9.84;100.00;100563.75;5028358;28;19913;-70
2023/03/04 10:28:40;;;;;;;;;;;;;;;9.85;100.00;100552.59;5028036;28;20011;-70
2023/03/04 10:31:11;;;;;;;;;;;;;;;9.97;100.00;100551.31;5029204;28;20008;-69
2023/03/04 10:33:37;;;;;;;;;;;;;;;10.12;100.00;100546.81;5027594;28;19917;-70
2023/03/04 10:36:03;;;;;;;;;;;;;;;10.26;100.00;100538.75;5065456;28;19912;-71
2023/03/04 10:38:33;;;;;;;;;;;;;;;10.25;100.00;100532.69;5070607;28;19950;-72
2023/03/04 10:40:59;;;;;;;;;;;;;;;10.34;100.00;100532.16;5070367;28;19912;-71
2023/03/04 10:43:24;;;;;;;;;;;;;;;10.37;100.00;100532.31;5070461;28;20271;-71
2023/03/04 10:45:53;;;;;;;;;;;;;;;10.33;100.00;100530.41;5071011;28;19916;-71
2023/03/04 10:48:21;;;;;;;;;;;;;;;10.20;100.00;100532.53;5070336;28;19966;-72
2023/03/04 10:50:46;;;;;;;;;;;;;;;10.19;100.00;100527.28;5068730;28;20432;-67
2023/03/04 10:53:35;;;;;;;;;;;;;;;10.22;100.00;100523.94;5069663;28;19962;-70
2023/03/04 10:56:01;;;;;;;;;;;;;;;10.12;100.00;100520.09;5069637;28;19924;-69
2023/03/04 10:58:27;;;;;;;;;;;;;;;10.02;100.00;100511.16;5069231;28;19938;-70
2023/03/04 11:01:02;;;;;;;;;;;;;;;9.87;100.00;100516.56;5069466;28;19921;-72
2023/03/04 11:03:30;;;;;;;;;;;;;;;9.84;100.00;100509.59;5066855;28;20053;-72
2023/03/04 11:06:13;;;;;;;;;;;;;;;10.01;100.00;100497.34;5069782;28;20014;-70
2023/03/04 11:08:40;;;;;;;;;;;;;;;10.18;100.00;100492.88;5069899;28;19912;-71
2023/03/04 11:11:20;;;;;;;;;;;;;;;10.16;100.00;100491.91;5068369;28;19962;-71
2023/03/04 11:13:58;;;;;;;;;;;;;;;10.24;100.00;100486.19;5064555;28;19979;-74
2023/03/04 11:16:24;;;;;;;;;;;;;;;10.54;100.00;100480.47;5070236;28;19912;-70
2023/03/04 11:18:52;;;;;;;;;;;;;;;10.57;100.00;100472.84;5070250;28;19952;-68
2023/03/04 11:21:22;;;;;;;;;;;;;;;10.65;100.00;100472.31;5051180;28;19998;-70
2023/03/04 11:23:57;;;;;;;;;;;;;;;10.81;100.00;100465.97;5050856;28;19962;-70
2023/03/04 11:26:32;;;;;;;;;;;;;;;11.04;100.00;100465.94;5070101;28;20345;-70
2023/03/04 11:29:00;;;;;;;;;;;;;;;11.14;100.00;100454.16;5070015;28;19981;-71
2023/03/04 11:31:35;;;;;;;;;;;;;;;11.44;100.00;100448.28;5069754;28;20314;-70
2023/03/04 11:34:03;;;;;;;;;;;;;;;11.63;100.00;100449.78;5070250;28;19912;-71
2023/03/04 11:36:44;;;;;;;;;;;;;;;11.62;100.00;100443.72;5072525;28;19913;-76
2023/03/04 11:39:15;;;;;;;;;;;;;;;11.41;100.00;100438.72;5086056;28;20318;-71
2023/03/04 11:41:45;;;;;;;;;;;;;;;11.46;100.00;100437.19;5072313;28;19917;-72
2023/03/04 11:44:11;;;;;;;;;;;;;;;11.52;100.00;100436.50;5073793;28;19917;-72
2023/03/04 11:46:54;;;;;;;;;;;;;;;11.52;100.00;100439.09;5074319;28;19935;-69
2023/03/04 11:49:38;;;;;;;;;;;;;;;11.41;100.00;100433.56;5073491;28;19912;-69
2023/03/04 11:52:18;;;;;;;;;;;;;;;11.27;100.00;100432.22;5073470;28;19912;-72
2023/03/04 11:54:51;;;;;;;;;;;;;;;11.12;100.00;100424.84;5073686;28;19913;-71
2023/03/04 11:57:16;;;;;;;;;;;;;;;11.16;100.00;100421.53;5085552;28;20454;-72
2023/03/04 11:59:42;;;;;;;;;;;;;;;11.21;100.00;100425.13;5053567;28;20007;-69
2023/03/04 12:02:07;;;;;;;;;;;;;;;11.23;100.00;100425.22;5080070;28;20338;-71
2023/03/04 12:05:03;;;;;;;;;;;;;;;11.21;100.00;100416.53;5033624;28;20387;-72
2023/03/04 12:07:46;;;;;;;;;;;;;;;11.27;100.00;100420.19;5051329;28;19916;-70
2023/03/04 12:10:32;;;;;;;;;;;;;;;11.61;100.00;100416.13;5053427;28;20000;-70
2023/03/04 12:13:12;;;;;;;;;;;;;;;11.91;100.00;100411.84;5053070;28;20379;-70
2023/03/04 12:15:52;;;;;;;;;;;;;;;12.05;100.00;100413.19;5053065;28;19916;-71
2023/03/04 12:18:30;;;;;;;;;;;;;;;11.98;100.00;100408.66;5053512;28;19932;-68
2023/03/04 12:21:11;;;;;;;;;;;;;;;11.94;100.00;100409.38;5085325;28;19923;-71
2023/03/04 12:23:39;;;;;;;;;;;;;;;11.87;100.00;100408.28;5052938;28;19920;-71
2023/03/04 12:26:20;;;;;;;;;;;;;;;11.82;100.00;100403.00;5053034;28;20307;-70
2023/03/04 12:28:50;;;;;;;;;;;;;;;11.74;100.00;100406.13;5053108;28;19935;-70
2023/03/04 12:31:31;;;;;;;;;;;;;;;11.70;100.00;100402.59;5052887;28;19971;-71
2023/03/04 12:33:56;;;;;;;;;;;;;;;11.69;100.00;100399.94;5052662;28;20413;-69
2023/03/04 12:36:40;;;;;;;;;;;;;;;11.64;100.00;100392.06;5052763;28;19959;-75